Time;durP1;ratioP1;P1;durP2;ratioP2;P2;SDS_P1;SDS_P2;PMS_P1;PMS_P2;Temp;Humidity;BMP_temperature;BMP_pressure;BME280_temperature;BME280_humidity;BME280_pressure;Samples;Min_cycle;Max_cycle;Signal;HPM_P1;HPM_P2
2021/05/04 00:01:41;;;;;;;;;;;;;;;4.80;69.59;99928.84;5121675;27;19953;-75
2021/05/04 00:04:09;;;;;;;;;;;;;;;4.69;69.32;99930.25;5136764;27;20391;-74
2021/05/04 00:06:37;;;;;;;;;;;;;;;4.59;70.13;99923.22;5136436;27;20388;-74
2021/05/04 00:09:05;;;;;;;;;;;;;;;4.47;69.68;99922.91;5136825;27;20319;-74
2021/05/04 00:11:34;;;;;;;;;;;;;;;4.38;70.63;99923.50;5136257;27;19923;-74
2021/05/04 00:14:02;;;;;;;;;;;;;;;4.29;70.63;99918.22;5118086;27;19923;-74
2021/05/04 00:16:30;;;;;;;;;;;;;;;4.31;71.11;99918.25;5136222;27;19927;-74
2021/05/04 00:18:58;;;;;;;;;;;;;;;4.34;70.66;99921.72;5118171;27;19927;-74
2021/05/04 00:21:26;;;;;;;;;;;;;;;4.36;71.62;99911.66;5117781;27;19951;-74
2021/05/04 00:23:54;;;;;;;;;;;;;;;4.32;71.61;99912.41;5136058;27;19923;-74
2021/05/04 00:26:22;;;;;;;;;;;;;;;4.29;71.25;99912.31;5117749;27;19924;-74
2021/05/04 00:28:50;;;;;;;;;;;;;;;4.24;71.17;99908.78;5135938;27;19923;-74
2021/05/04 00:31:18;;;;;;;;;;;;;;;4.22;71.82;99910.41;5135712;27;19933;-74
2021/05/04 00:33:46;;;;;;;;;;;;;;;4.19;71.88;99905.28;5135842;27;19967;-74
2021/05/04 00:36:14;;;;;;;;;;;;;;;4.24;71.38;99898.69;5118054;27;19930;-74
2021/05/04 00:38:42;;;;;;;;;;;;;;;4.23;71.21;99904.53;5136092;27;19963;-74
2021/05/04 00:41:10;;;;;;;;;;;;;;;4.18;71.44;99903.53;5118150;27;19924;-74
2021/05/04 00:43:38;;;;;;;;;;;;;;;4.13;71.17;99905.13;5135610;27;20350;-74
2021/05/04 00:46:07;;;;;;;;;;;;;;;4.05;71.70;99897.31;5135609;27;19947;-73
2021/05/04 00:48:37;;;;;;;;;;;;;;;4.05;71.34;99898.16;5135668;27;20380;-75
2021/05/04 00:51:05;;;;;;;;;;;;;;;4.11;71.12;99894.94;5135876;27;19924;-73
2021/05/04 00:53:33;;;;;;;;;;;;;;;4.12;71.37;99898.34;5135515;27;19924;-75
2021/05/04 00:56:01;;;;;;;;;;;;;;;4.21;71.68;99893.53;5135933;27;19923;-75
2021/05/04 00:58:28;;;;;;;;;;;;;;;4.27;71.84;99899.59;5135512;27;20012;-75
2021/05/04 01:00:56;;;;;;;;;;;;;;;4.34;71.51;99898.13;5135450;27;19984;-75
2021/05/04 01:03:25;;;;;;;;;;;;;;;4.37;71.39;99896.53;5135324;27;20392;-75
2021/05/04 01:05:53;;;;;;;;;;;;;;;4.31;71.09;99886.28;5135625;27;20290;-75
2021/05/04 01:08:21;;;;;;;;;;;;;;;4.18;70.88;99891.78;5135294;27;20342;-75
2021/05/04 01:10:49;;;;;;;;;;;;;;;4.07;71.11;99899.06;5135289;27;19923;-75
2021/05/04 01:13:17;;;;;;;;;;;;;;;3.99;70.96;99892.94;5135208;27;20387;-75
2021/05/04 01:15:45;;;;;;;;;;;;;;;3.92;70.87;99900.28;5135094;27;20293;-75
2021/05/04 01:18:13;;;;;;;;;;;;;;;3.83;71.35;99888.28;5135157;27;19975;-75
2021/05/04 01:20:41;;;;;;;;;;;;;;;3.79;71.50;99888.97;5135472;27;19923;-74
2021/05/04 01:23:12;;;;;;;;;;;;;;;3.88;71.43;99889.25;5135144;27;19972;-75
2021/05/04 01:25:51;;;;;;;;;;;;;;;3.97;71.77;99894.56;5135166;27;19977;-75
2021/05/04 01:28:19;;;;;;;;;;;;;;;4.03;72.17;99899.78;5135344;27;20001;-75
2021/05/04 01:30:46;;;;;;;;;;;;;;;4.11;72.58;99886.50;5135072;27;19931;-75
2021/05/04 01:33:14;;;;;;;;;;;;;;;4.23;72.42;99881.81;5135232;27;19946;-75
2021/05/04 01:35:42;;;;;;;;;;;;;;;4.32;72.35;99882.06;5135165;27;20386;-75
2021/05/04 01:38:10;;;;;;;;;;;;;;;4.39;72.15;99877.19;5135537;28;19984;-75
2021/05/04 01:40:38;;;;;;;;;;;;;;;4.47;71.49;99879.94;5134928;28;19931;-75
2021/05/04 01:43:06;;;;;;;;;;;;;;;4.54;72.11;99874.22;5136332;27;19923;-74
2021/05/04 01:45:34;;;;;;;;;;;;;;;4.53;71.50;99875.94;5139253;27;19931;-75
2021/05/04 01:48:02;;;;;;;;;;;;;;;4.46;71.84;99880.78;5139189;27;20333;-75
2021/05/04 01:50:29;;;;;;;;;;;;;;;4.42;71.30;99874.78;5139116;27;20381;-75
2021/05/04 01:52:57;;;;;;;;;;;;;;;4.44;71.75;99872.31;5139022;27;19930;-74
2021/05/04 01:55:25;;;;;;;;;;;;;;;4.46;71.39;99873.19;5138944;27;19968;-75
2021/05/04 01:57:54;;;;;;;;;;;;;;;4.47;71.78;99869.84;5138968;27;20013;-74
2021/05/04 02:00:22;;;;;;;;;;;;;;;4.45;71.80;99859.69;5120663;27;19927;-75
2021/05/04 02:02:49;;;;;;;;;;;;;;;4.48;71.67;99858.94;5138744;27;19968;-75
2021/05/04 02:05:17;;;;;;;;;;;;;;;4.46;71.35;99865.63;5138799;27;19924;-75
2021/05/04 02:07:45;;;;;;;;;;;;;;;4.46;71.06;99860.56;5139081;27;19923;-75
2021/05/04 02:10:13;;;;;;;;;;;;;;;4.47;71.66;99854.66;5138993;27;20292;-75
2021/05/04 02:12:41;;;;;;;;;;;;;;;4.52;71.37;99855.66;5138693;27;20010;-75
2021/05/04 02:15:10;;;;;;;;;;;;;;;4.58;71.22;99853.31;5138537;27;19966;-75
2021/05/04 02:17:38;;;;;;;;;;;;;;;4.63;71.06;99844.16;5138856;27;19983;-75
2021/05/04 02:20:06;;;;;;;;;;;;;;;4.71;71.23;99846.06;5138571;27;19924;-75
2021/05/04 02:22:34;;;;;;;;;;;;;;;4.73;71.46;99841.03;5138552;27;19929;-75
2021/05/04 02:25:03;;;;;;;;;;;;;;;4.65;71.30;99838.31;5138411;27;19930;-75
2021/05/04 02:27:31;;;;;;;;;;;;;;;4.59;71.45;99832.25;5138691;27;19923;-75
2021/05/04 02:29:58;;;;;;;;;;;;;;;4.64;71.55;99825.63;5138370;27;19927;-74
2021/05/04 02:32:27;;;;;;;;;;;;;;;4.65;71.74;99829.88;5138274;27;20331;-74
2021/05/04 02:34:55;;;;;;;;;;;;;;;4.63;71.25;99829.00;5138131;27;20363;-75
2021/05/04 02:37:23;;;;;;;;;;;;;;;4.66;71.82;99829.06;5119892;27;20359;-75
2021/05/04 02:39:50;;;;;;;;;;;;;;;4.66;71.69;99819.81;5138177;27;19968;-75
2021/05/04 02:42:18;;;;;;;;;;;;;;;4.67;71.89;99825.72;5138415;27;19934;-75
2021/05/04 02:44:46;;;;;;;;;;;;;;;4.70;71.81;99833.38;5138019;27;19970;-75
2021/05/04 02:47:14;;;;;;;;;;;;;;;4.70;71.33;99830.88;5138026;27;19969;-75
2021/05/04 02:49:44;;;;;;;;;;;;;;;4.69;71.80;99819.88;5138270;27;19930;-75
2021/05/04 02:52:11;;;;;;;;;;;;;;;4.66;71.03;99829.91;5137908;27;19954;-75
2021/05/04 02:54:39;;;;;;;;;;;;;;;4.64;70.99;99823.09;5137976;27;19924;-75
2021/05/04 02:57:07;;;;;;;;;;;;;;;4.61;71.60;99815.44;5137841;27;20014;-75
2021/05/04 02:59:35;;;;;;;;;;;;;;;4.57;71.44;99823.78;5138039;27;19924;-75
2021/05/04 03:02:03;;;;;;;;;;;;;;;4.51;70.91;99808.47;5137609;27;19930;-75
2021/05/04 03:04:30;;;;;;;;;;;;;;;4.51;71.03;99803.41;5137695;27;19923;-75
2021/05/04 03:06:59;;;;;;;;;;;;;;;4.53;71.24;99811.88;5137879;27;19928;-75
2021/05/04 03:09:27;;;;;;;;;;;;;;;4.47;71.11;99811.72;5138177;27;19962;-75
2021/05/04 03:11:55;;;;;;;;;;;;;;;4.47;71.41;99796.56;5137512;27;19923;-75
2021/05/04 03:14:24;;;;;;;;;;;;;;;4.53;71.41;99799.25;5137796;27;19928;-74
2021/05/04 03:16:51;;;;;;;;;;;;;;;4.57;71.13;99788.41;5137692;27;20345;-74
2021/05/04 03:19:19;;;;;;;;;;;;;;;4.61;70.95;99785.13;5137423;27;20385;-75
2021/05/04 03:21:47;;;;;;;;;;;;;;;4.68;70.96;99776.84;5137643;27;19939;-75
2021/05/04 03:24:15;;;;;;;;;;;;;;;4.72;71.52;99776.13;5137348;27;19927;-75
2021/05/04 03:26:45;;;;;;;;;;;;;;;4.72;71.38;99783.72;5118855;27;19930;-74
2021/05/04 03:29:13;;;;;;;;;;;;;;;4.74;71.56;99782.09;5137266;27;19930;-74
2021/05/04 03:31:40;;;;;;;;;;;;;;;4.77;71.51;99782.16;5137151;27;19931;-75
2021/05/04 03:34:08;;;;;;;;;;;;;;;4.83;71.30;99778.91;5137285;27;19927;-75
2021/05/04 03:36:36;;;;;;;;;;;;;;;4.88;71.97;99775.66;5137013;27;19923;-75
2021/05/04 03:39:04;;;;;;;;;;;;;;;4.91;72.03;99770.69;5137053;27;19927;-75
2021/05/04 03:41:33;;;;;;;;;;;;;;;4.98;71.40;99767.47;5136959;27;19923;-74
2021/05/04 03:44:01;;;;;;;;;;;;;;;5.03;71.51;99754.94;5137178;27;19930;-75
2021/05/04 03:46:29;;;;;;;;;;;;;;;5.05;71.50;99751.63;5136793;27;20022;-75
2021/05/04 03:48:56;;;;;;;;;;;;;;;5.00;72.07;99750.66;5136751;27;20280;-74
2021/05/04 03:51:24;;;;;;;;;;;;;;;4.98;72.11;99747.25;5136726;27;19924;-75
2021/05/04 03:53:52;;;;;;;;;;;;;;;4.94;71.73;99755.59;5136742;27;19923;-73
2021/05/04 03:56:20;;;;;;;;;;;;;;;4.96;71.89;99753.09;5136527;27;19976;-74
2021/05/04 03:58:49;;;;;;;;;;;;;;;4.93;72.31;99758.94;5136904;27;19935;-75
2021/05/04 04:01:17;;;;;;;;;;;;;;;4.90;72.00;99758.84;5136397;27;19931;-75
2021/05/04 04:03:44;;;;;;;;;;;;;;;4.87;72.54;99758.78;5137162;27;19955;-74
2021/05/04 04:06:12;;;;;;;;;;;;;;;4.83;72.45;99757.00;5136261;27;20002;-75
2021/05/04 04:08:40;;;;;;;;;;;;;;;4.79;72.21;99750.19;5136515;27;19959;-74
2021/05/04 04:11:09;;;;;;;;;;;;;;;4.79;72.84;99745.13;5136401;27;19923;-75
2021/05/04 04:13:37;;;;;;;;;;;;;;;4.82;72.28;99744.34;5136353;27;20335;-74
2021/05/04 04:16:06;;;;;;;;;;;;;;;4.79;72.53;99750.19;5136261;27;19968;-74
2021/05/04 04:18:34;;;;;;;;;;;;;;;4.75;72.84;99754.28;5117861;27;19924;-74
2021/05/04 04:21:01;;;;;;;;;;;;;;;4.78;72.36;99743.41;5136236;27;19930;-75
2021/05/04 04:23:29;;;;;;;;;;;;;;;4.87;73.14;99741.06;5136122;27;20377;-74
2021/05/04 04:25:57;;;;;;;;;;;;;;;4.98;73.31;99743.88;5136079;27;19924;-74
2021/05/04 04:28:24;;;;;;;;;;;;;;;5.06;72.70;99743.19;5135933;27;19924;-75
2021/05/04 04:30:52;;;;;;;;;;;;;;;5.18;72.83;99740.09;5136050;27;19978;-74
2021/05/04 04:33:24;;;;;;;;;;;;;;;5.42;72.65;99733.84;5136193;27;19924;-74
2021/05/04 04:35:51;;;;;;;;;;;;;;;5.64;72.77;99734.31;5135898;27;20441;-75
2021/05/04 04:38:19;;;;;;;;;;;;;;;5.75;71.96;99735.38;5135959;27;20335;-75
2021/05/04 04:40:48;;;;;;;;;;;;;;;5.90;72.09;99731.47;5135778;27;19938;-75
2021/05/04 04:43:15;;;;;;;;;;;;;;;6.03;71.55;99732.53;5136006;27;19923;-75
2021/05/04 04:45:43;;;;;;;;;;;;;;;6.22;71.42;99732.03;5135685;27;20035;-75
2021/05/04 04:48:11;;;;;;;;;;;;;;;6.30;71.15;99733.03;5135628;27;19976;-75
2021/05/04 04:50:40;;;;;;;;;;;;;;;6.37;70.57;99724.72;5135558;27;19924;-75
2021/05/04 04:53:08;;;;;;;;;;;;;;;6.56;69.98;99726.72;5117503;27;19923;-75
2021/05/04 04:55:36;;;;;;;;;;;;;;;6.77;70.08;99720.28;5117092;27;20023;-75
2021/05/04 04:58:04;;;;;;;;;;;;;;;6.92;69.28;99720.47;5135384;27;20407;-75
2021/05/04 05:00:33;;;;;;;;;;;;;;;7.04;68.53;99720.66;5117326;27;20362;-74
2021/05/04 05:03:01;;;;;;;;;;;;;;;7.05;67.73;99722.38;5135391;27;19923;-73
2021/05/04 05:05:29;;;;;;;;;;;;;;;7.06;67.19;99714.78;5135367;27;19943;-74
2021/05/04 05:07:57;;;;;;;;;;;;;;;7.11;67.09;99722.44;5135896;27;19931;-76
2021/05/04 05:10:26;;;;;;;;;;;;;;;7.21;66.59;99719.19;5135112;27;19927;-76
2021/05/04 05:13:02;;;;;;;;;;;;;;;7.40;66.61;99713.53;5135051;27;19924;-75
2021/05/04 05:15:36;;;;;;;;;;;;;;;7.56;66.69;99707.78;5135375;27;19927;-76
2021/05/04 05:18:05;;;;;;;;;;;;;;;7.70;66.35;99705.41;5134887;27;19927;-76
2021/05/04 05:20:33;;;;;;;;;;;;;;;7.84;65.56;99698.78;5135028;27;20280;-77
2021/05/04 05:23:02;;;;;;;;;;;;;;;7.95;65.35;99703.16;5135021;27;19924;-76
2021/05/04 05:25:30;;;;;;;;;;;;;;;8.10;65.01;99699.91;5135335;27;19923;-76
2021/05/04 05:27:58;;;;;;;;;;;;;;;8.24;64.30;99685.63;5135005;27;20369;-76
2021/05/04 05:30:25;;;;;;;;;;;;;;;8.40;64.16;99681.53;5135303;27;19942;-75
2021/05/04 05:32:53;;;;;;;;;;;;;;;8.51;63.77;99679.94;5134990;27;20014;-75
2021/05/04 05:35:21;;;;;;;;;;;;;;;8.60;63.50;99680.00;5134816;27;19924;-76
2021/05/04 05:37:48;;;;;;;;;;;;;;;8.69;62.97;99675.81;5134946;27;20022;-75
2021/05/04 05:40:17;;;;;;;;;;;;;;;8.78;62.87;99672.50;5134825;28;19923;-76
2021/05/04 05:42:45;;;;;;;;;;;;;;;8.86;62.40;99673.38;5116810;28;19923;-74
2021/05/04 05:45:14;;;;;;;;;;;;;;;8.89;62.61;99670.88;5117384;28;19928;-74
2021/05/04 05:47:41;;;;;;;;;;;;;;;8.99;62.45;99659.91;5135065;28;19930;-74
2021/05/04 05:50:09;;;;;;;;;;;;;;;9.16;61.95;99658.28;5134753;28;19957;-75
2021/05/04 05:52:37;;;;;;;;;;;;;;;9.36;61.99;99656.66;5134901;28;20381;-75
2021/05/04 05:55:05;;;;;;;;;;;;;;;9.51;61.70;99649.91;5134889;28;20020;-75
2021/05/04 05:57:34;;;;;;;;;;;;;;;9.70;61.05;99646.56;5134730;28;20428;-75
2021/05/04 06:00:01;;;;;;;;;;;;;;;9.82;60.45;99641.47;5135202;28;19923;-75
2021/05/04 06:02:30;;;;;;;;;;;;;;;10.06;60.85;99646.63;5134339;28;19924;-74
2021/05/04 06:04:58;;;;;;;;;;;;;;;10.17;60.81;99650.06;5134582;28;19973;-75
2021/05/04 06:07:26;;;;;;;;;;;;;;;10.28;60.56;99653.47;5134372;28;19946;-75
2021/05/04 06:09:53;;;;;;;;;;;;;;;10.40;60.01;99653.47;5134944;28;19984;-75
2021/05/04 06:12:21;;;;;;;;;;;;;;;10.51;59.37;99646.63;5134538;28;19959;-75
2021/05/04 06:14:50;;;;;;;;;;;;;;;10.62;58.43;99650.03;5134378;28;19949;-75
2021/05/04 06:17:17;;;;;;;;;;;;;;;10.78;58.35;99651.69;5134702;28;20285;-75
2021/05/04 06:19:45;;;;;;;;;;;;;;;10.89;57.98;99648.28;5134793;28;19923;-75
2021/05/04 06:22:13;;;;;;;;;;;;;;;10.98;57.37;99643.13;5134509;28;19969;-75
2021/05/04 06:24:41;;;;;;;;;;;;;;;11.08;57.28;99635.47;5134473;28;19930;-75
2021/05/04 06:27:09;;;;;;;;;;;;;;;11.28;57.39;99627.69;5116125;28;20035;-75
2021/05/04 06:29:37;;;;;;;;;;;;;;;11.46;57.23;99632.72;5136541;27;19931;-74
2021/05/04 06:32:09;;;;;;;;;;;;;;;11.57;56.52;99625.84;5138183;27;19945;-74
2021/05/04 06:34:38;;;;;;;;;;;;;;;11.73;56.18;99624.09;5138141;27;19930;-75
2021/05/04 06:37:06;;;;;;;;;;;;;;;11.81;55.89;99615.50;5119812;27;19935;-73
2021/05/04 06:39:35;;;;;;;;;;;;;;;11.93;56.28;99617.97;5138635;27;19924;-75
2021/05/04 06:42:02;;;;;;;;;;;;;;;12.00;55.93;99619.63;5138029;27;20398;-75
2021/05/04 06:44:30;;;;;;;;;;;;;;;12.13;55.82;99616.97;5138145;27;20269;-75
2021/05/04 06:46:58;;;;;;;;;;;;;;;12.25;56.05;99611.75;5119725;27;19972;-75
2021/05/04 06:49:27;;;;;;;;;;;;;;;12.27;55.72;99605.75;5137800;27;19930;-75
2021/05/04 06:51:55;;;;;;;;;;;;;;;12.22;56.36;99596.41;5137843;27;20005;-74
2021/05/04 06:54:23;;;;;;;;;;;;;;;12.33;56.44;99592.06;5137797;27;19924;-74
2021/05/04 06:56:51;;;;;;;;;;;;;;;12.49;56.80;99601.28;5137637;27;20013;-74
2021/05/04 06:59:19;;;;;;;;;;;;;;;12.61;56.03;99583.25;5137748;27;19973;-74
2021/05/04 07:01:47;;;;;;;;;;;;;;;12.68;54.93;99582.31;5137329;27;19923;-72
2021/05/04 07:04:15;;;;;;;;;;;;;;;12.79;55.11;99580.47;5137672;27;19930;-73
2021/05/04 07:06:44;;;;;;;;;;;;;;;12.88;54.27;99572.72;5137541;27;19931;-73
2021/05/04 07:09:12;;;;;;;;;;;;;;;13.02;54.08;99568.25;5119273;27;19929;-73
2021/05/04 07:11:44;;;;;;;;;;;;;;;13.21;53.55;99569.75;5137789;27;20377;-73
2021/05/04 07:14:12;;;;;;;;;;;;;;;13.28;53.17;99558.53;5137416;27;19923;-74
2021/05/04 07:16:40;;;;;;;;;;;;;;;13.35;53.04;99562.72;5137310;27;19973;-75
2021/05/04 07:19:07;;;;;;;;;;;;;;;13.41;53.15;99562.63;5137229;27;19924;-74
2021/05/04 07:21:36;;;;;;;;;;;;;;;13.41;53.21;99556.66;5137324;27;19976;-73
2021/05/04 07:24:20;;;;;;;;;;;;;;;13.47;53.46;99565.97;5137438;27;20372;-74
2021/05/04 07:26:51;;;;;;;;;;;;;;;13.54;53.64;99560.75;5137786;27;19992;-73
2021/05/04 07:29:22;;;;;;;;;;;;;;;13.70;53.15;99558.81;5137493;27;19927;-75
2021/05/04 07:31:50;;;;;;;;;;;;;;;13.68;52.60;99550.25;5137445;27;19924;-74
2021/05/04 07:34:26;;;;;;;;;;;;;;;13.67;53.04;99548.59;5137092;27;19924;-75
2021/05/04 07:36:58;;;;;;;;;;;;;;;13.89;53.12;99557.66;5137180;27;20298;-72
2021/05/04 07:39:27;;;;;;;;;;;;;;;14.00;51.92;99548.03;5137206;27;19924;-72
2021/05/04 07:41:55;;;;;;;;;;;;;;;14.10;51.86;99552.16;5135801;27;19927;-73
2021/05/04 07:44:23;;;;;;;;;;;;;;;14.12;52.03;99552.97;5118750;27;19953;-73
2021/05/04 07:46:54;;;;;;;;;;;;;;;14.16;52.96;99544.34;5136808;27;19923;-72
2021/05/04 07:49:31;;;;;;;;;;;;;;;14.28;52.85;99548.41;5137008;27;19927;-73
2021/05/04 07:52:01;;;;;;;;;;;;;;;14.35;52.43;99540.59;5136319;27;19954;-73
2021/05/04 07:54:34;;;;;;;;;;;;;;;14.51;53.15;99542.03;5118362;27;20014;-73
2021/05/04 07:57:07;;;;;;;;;;;;;;;14.55;53.39;99530.81;5136360;27;19923;-74
2021/05/04 07:59:38;;;;;;;;;;;;;;;14.71;54.22;99529.63;5118298;27;19946;-73
2021/05/04 08:02:06;;;;;;;;;;;;;;;14.85;54.45;99536.22;5136420;27;20274;-73
2021/05/04 08:04:37;;;;;;;;;;;;;;;14.81;53.24;99535.44;5137011;27;20010;-75
2021/05/04 08:07:08;;;;;;;;;;;;;;;14.78;53.74;99538.91;5136562;27;19976;-74
2021/05/04 08:09:41;;;;;;;;;;;;;;;14.89;54.31;99525.00;5118472;27;20021;-73
2021/05/04 08:12:12;;;;;;;;;;;;;;;14.86;54.03;99532.75;5136428;27;20381;-73
2021/05/04 08:14:44;;;;;;;;;;;;;;;14.92;54.70;99530.09;5136542;27;19967;-73
2021/05/04 08:17:15;;;;;;;;;;;;;;;15.02;54.33;99518.75;5136202;27;19927;-74
2021/05/04 08:19:46;;;;;;;;;;;;;;;15.15;54.24;99528.72;5136380;27;19930;-73
2021/05/04 08:22:14;;;;;;;;;;;;;;;15.25;53.96;99521.66;5136854;27;19931;-73
2021/05/04 08:24:48;;;;;;;;;;;;;;;15.44;54.26;99510.06;5136089;27;19930;-74
2021/05/04 08:27:16;;;;;;;;;;;;;;;15.61;54.53;99520.84;5135950;27;20297;-73
2021/05/04 08:29:47;;;;;;;;;;;;;;;15.68;53.92;99516.38;5136023;27;20424;-75
2021/05/04 08:32:17;;;;;;;;;;;;;;;15.81;53.99;99522.94;5136169;27;19930;-73
2021/05/04 08:34:47;;;;;;;;;;;;;;;15.90;53.08;99512.41;5136359;27;19930;-72
2021/05/04 08:37:18;;;;;;;;;;;;;;;15.83;51.51;99518.59;5135719;27;19968;-73
2021/05/04 08:39:46;;;;;;;;;;;;;;;15.73;51.45;99497.38;5136069;27;19924;-72
2021/05/04 08:42:18;;;;;;;;;;;;;;;15.85;52.86;99504.81;5135938;27;19966;-74
2021/05/04 08:44:52;;;;;;;;;;;;;;;15.88;52.62;99499.56;5136133;27;19946;-74
2021/05/04 08:47:24;;;;;;;;;;;;;;;16.00;52.42;99504.41;5136209;27;20289;-74
2021/05/04 08:49:53;;;;;;;;;;;;;;;15.99;52.58;99497.59;5136029;27;19927;-73
2021/05/04 08:52:25;;;;;;;;;;;;;;;15.92;52.29;99490.91;5135712;27;19924;-74
2021/05/04 08:54:55;;;;;;;;;;;;;;;16.14;53.00;99474.88;5135609;27;19927;-73
2021/05/04 08:57:24;;;;;;;;;;;;;;;16.29;52.21;99479.66;5117359;27;19924;-74
2021/05/04 08:59:52;;;;;;;;;;;;;;;16.28;51.82;99477.94;5135880;27;19980;-76
2021/05/04 09:02:24;;;;;;;;;;;;;;;16.22;51.74;99467.81;5135324;27;19946;-76
2021/05/04 09:04:54;;;;;;;;;;;;;;;16.20;52.38;99477.28;5135843;27;19923;-77
2021/05/04 09:07:28;;;;;;;;;;;;;;;16.30;52.44;99460.72;5135650;27;19962;-73
2021/05/04 09:10:02;;;;;;;;;;;;;;;16.52;52.70;99467.84;5117340;27;20473;-74
2021/05/04 09:12:37;;;;;;;;;;;;;;;16.66;51.68;99451.97;5135885;27;20310;-73
2021/05/04 09:15:19;;;;;;;;;;;;;;;16.69;50.39;99457.06;5135083;27;19966;-74
2021/05/04 09:17:53;;;;;;;;;;;;;;;16.82;50.33;99442.91;5135658;27;19924;-75
2021/05/04 09:20:30;;;;;;;;;;;;;;;16.98;51.12;99436.41;5135234;27;20438;-77
2021/05/04 09:23:06;;;;;;;;;;;;;;;17.06;50.13;99442.16;5135250;27;19931;-74
2021/05/04 09:25:38;;;;;;;;;;;;;;;17.22;50.92;99440.81;5135583;27;19970;-76
2021/05/04 09:28:13;;;;;;;;;;;;;;;17.40;50.16;99440.22;5135536;27;19923;-76
2021/05/04 09:30:51;;;;;;;;;;;;;;;17.47;49.98;99425.38;5135470;27;19924;-74
2021/05/04 09:33:22;;;;;;;;;;;;;;;17.49;49.73;99417.59;5135488;27;20424;-75
2021/05/04 09:35:51;;;;;;;;;;;;;;;17.65;49.33;99436.88;5116779;28;19923;-72
2021/05/04 09:38:22;;;;;;;;;;;;;;;17.50;49.23;99419.28;5116781;28;19923;-74
2021/05/04 09:40:53;;;;;;;;;;;;;;;17.29;49.24;99416.50;5135047;28;19927;-74
2021/05/04 09:43:26;;;;;;;;;;;;;;;16.97;49.75;99424.41;5135212;28;19930;-77
2021/05/04 09:45:58;;;;;;;;;;;;;;;17.01;49.33;99410.50;5135144;28;19923;-76
2021/05/04 09:48:31;;;;;;;;;;;;;;;17.26;49.67;99398.53;5135355;28;20404;-75
2021/05/04 09:51:06;;;;;;;;;;;;;;;17.57;47.88;99397.56;5135143;28;19937;-77
2021/05/04 09:53:42;;;;;;;;;;;;;;;17.64;47.17;99381.81;5135231;28;19931;-74
2021/05/04 09:56:14;;;;;;;;;;;;;;;17.88;47.82;99399.03;5135158;28;19934;-73
2021/05/04 09:58:46;;;;;;;;;;;;;;;17.88;47.53;99390.44;5134930;28;19924;-73
2021/05/04 10:01:17;;;;;;;;;;;;;;;17.54;48.11;99393.34;5134902;28;19924;-76
2021/05/04 10:03:49;;;;;;;;;;;;;;;17.51;47.78;99388.28;5094460;28;20000;-75
2021/05/04 10:06:18;;;;;;;;;;;;;;;17.64;47.77;99380.97;5097113;28;19935;-74
2021/05/04 10:08:50;;;;;;;;;;;;;;;17.85;47.56;99380.25;5098046;28;19969;-76
2021/05/04 10:11:21;;;;;;;;;;;;;;;18.02;46.50;99367.56;5098046;28;19967;-75
2021/05/04 10:13:54;;;;;;;;;;;;;;;18.22;47.36;99380.63;5097966;28;19934;-72
2021/05/04 10:16:26;;;;;;;;;;;;;;;18.23;46.22;99371.97;5097636;28;19924;-73
2021/05/04 10:18:58;;;;;;;;;;;;;;;18.35;46.31;99361.19;5097622;28;19924;-74
2021/05/04 10:21:30;;;;;;;;;;;;;;;18.36;46.23;99357.69;5097935;28;19963;-73
2021/05/04 10:23:58;;;;;;;;;;;;;;;18.51;46.86;99353.72;5097543;28;19925;-76
2021/05/04 10:26:27;;;;;;;;;;;;;;;18.64;46.49;99366.09;5097637;28;20419;-73
2021/05/04 10:29:07;;;;;;;;;;;;;;;18.64;45.48;99353.19;5097533;28;19963;-75
2021/05/04 10:31:41;;;;;;;;;;;;;;;18.67;46.26;99347.91;5098176;28;19923;-78
2021/05/04 10:34:23;;;;;;;;;;;;;;;18.74;44.33;99344.16;5097662;28;19928;-74
2021/05/04 10:36:54;;;;;;;;;;;;;;;18.73;44.47;99332.16;5097313;28;19932;-76
2021/05/04 10:39:33;;;;;;;;;;;;;;;18.87;45.02;99328.16;5097259;28;19924;-74
2021/05/04 10:42:08;;;;;;;;;;;;;;;18.87;44.33;99333.34;5096678;28;19930;-76
2021/05/04 10:44:51;;;;;;;;;;;;;;;18.87;43.86;99323.00;5097541;28;19932;-74
2021/05/04 10:47:37;;;;;;;;;;;;;;;19.02;43.80;99322.38;5097425;28;20344;-74
2021/05/04 10:50:08;;;;;;;;;;;;;;;19.10;44.20;99310.00;5096215;28;20446;-75
2021/05/04 10:52:47;;;;;;;;;;;;;;;19.10;43.41;99312.59;5097070;28;19924;-74
2021/05/04 10:55:15;;;;;;;;;;;;;;;19.21;44.28;99302.63;5097344;28;19924;-74
2021/05/04 10:57:57;;;;;;;;;;;;;;;19.13;42.91;99309.84;5097589;28;19924;-74
2021/05/04 11:00:42;;;;;;;;;;;;;;;19.13;43.81;99296.91;5096910;28;19959;-75
2021/05/04 11:03:25;;;;;;;;;;;;;;;19.05;43.95;99291.22;5115043;27;19972;-76
2021/05/04 11:05:54;;;;;;;;;;;;;;;18.97;43.38;99282.94;5137178;27;20018;-75
2021/05/04 11:08:22;;;;;;;;;;;;;;;18.95;44.69;99285.59;5137597;27;20285;-75
2021/05/04 11:11:07;;;;;;;;;;;;;;;19.06;45.36;99277.38;5137577;27;19928;-76
2021/05/04 11:13:59;;;;;;;;;;;;;;;19.13;44.07;99274.47;5137014;27;19955;-74
2021/05/04 11:16:30;;;;;;;;;;;;;;;19.20;43.69;99269.88;5131788;27;19923;-75
2021/05/04 11:19:05;;;;;;;;;;;;;;;19.36;43.60;99270.97;5137811;27;19924;-74
2021/05/04 11:21:38;;;;;;;;;;;;;;;19.45;42.67;99256.75;5120511;27;19923;-75
2021/05/04 11:24:07;;;;;;;;;;;;;;;19.51;42.17;99253.94;5137711;27;19953;-73
2021/05/04 11:26:48;;;;;;;;;;;;;;;19.55;42.70;99245.94;5120146;27;19959;-74
2021/05/04 11:29:23;;;;;;;;;;;;;;;19.58;43.38;99235.44;5137438;27;19923;-75
2021/05/04 11:31:54;;;;;;;;;;;;;;;19.84;43.89;99242.88;5137592;27;19928;-73
2021/05/04 11:34:43;;;;;;;;;;;;;;;19.93;42.11;99226.09;5137474;27;19930;-74
2021/05/04 11:37:13;;;;;;;;;;;;;;;20.05;41.82;99222.94;5131493;27;19924;-76
2021/05/04 11:39:50;;;;;;;;;;;;;;;20.11;41.54;99229.59;5137304;27;19966;-73
2021/05/04 11:42:22;;;;;;;;;;;;;;;20.19;40.91;99227.47;5118958;27;19923;-73
2021/05/04 11:44:53;;;;;;;;;;;;;;;20.20;40.19;99208.44;5137233;27;20301;-76
2021/05/04 11:47:25;;;;;;;;;;;;;;;20.29;40.84;99216.63;5136809;27;20304;-77
2021/05/04 11:50:01;;;;;;;;;;;;;;;20.34;40.92;99212.06;5137071;27;19923;-73
2021/05/04 11:52:34;;;;;;;;;;;;;;;20.38;40.86;99213.59;5137017;27;19941;-74
2021/05/04 11:55:10;;;;;;;;;;;;;;;20.45;39.95;99203.75;5137025;27;19923;-75
2021/05/04 11:57:43;;;;;;;;;;;;;;;20.58;41.81;99199.69;5136602;27;19927;-75
2021/05/04 12:00:12;;;;;;;;;;;;;;;20.75;41.46;99207.47;5118545;27;19931;-74
2021/05/04 12:02:42;;;;;;;;;;;;;;;20.72;40.53;99186.88;5136284;27;19938;-77
2021/05/04 12:05:16;;;;;;;;;;;;;;;20.72;40.00;99176.50;5136522;27;19923;-75
2021/05/04 12:07:48;;;;;;;;;;;;;;;20.83;39.54;99176.78;5136918;27;20369;-75
2021/05/04 12:10:24;;;;;;;;;;;;;;;20.85;39.29;99166.34;5136624;27;19988;-75
2021/05/04 12:12:52;;;;;;;;;;;;;;;20.93;40.16;99169.38;5137110;27;19946;-75
2021/05/04 12:15:24;;;;;;;;;;;;;;;20.69;39.55;99163.66;5136703;27;19977;-75
2021/05/04 12:18:03;;;;;;;;;;;;;;;20.53;39.00;99160.16;5136222;27;19931;-76
2021/05/04 12:20:33;;;;;;;;;;;;;;;20.67;38.43;99147.34;5136497;27;20429;-76
2021/05/04 12:23:04;;;;;;;;;;;;;;;20.74;38.22;99153.91;5136482;27;19924;-74
2021/05/04 12:25:40;;;;;;;;;;;;;;;20.78;39.72;99152.00;5135990;27;19923;-75
2021/05/04 12:28:09;;;;;;;;;;;;;;;20.83;39.36;99140.47;5135607;27;19972;-75
2021/05/04 12:30:37;;;;;;;;;;;;;;;20.89;39.17;99137.56;5136136;27;19972;-76
2021/05/04 12:33:05;;;;;;;;;;;;;;;20.94;39.48;99130.38;5136149;27;20022;-73
2021/05/04 12:35:48;;;;;;;;;;;;;;;20.97;39.46;99138.00;5136081;27;19924;-74
2021/05/04 12:38:23;;;;;;;;;;;;;;;20.71;39.35;99128.09;5136431;27;19924;-74
2021/05/04 12:40:55;;;;;;;;;;;;;;;20.44;39.67;99124.31;5136613;27;19966;-75
2021/05/04 12:43:29;;;;;;;;;;;;;;;20.18;39.34;99128.13;5136201;27;19955;-76
2021/05/04 12:46:07;;;;;;;;;;;;;;;20.04;39.87;99131.41;5136488;27;19930;-75
2021/05/04 12:48:39;;;;;;;;;;;;;;;19.93;40.69;99123.31;5117796;27;20014;-74
2021/05/04 12:51:11;;;;;;;;;;;;;;;20.03;40.77;99111.56;5136239;27;19924;-76
2021/05/04 12:53:45;;;;;;;;;;;;;;;20.17;40.46;99112.69;5135992;27;19932;-76
2021/05/04 12:56:17;;;;;;;;;;;;;;;20.39;40.15;99092.59;5135712;27;19976;-75
2021/05/04 12:58:56;;;;;;;;;;;;;;;20.52;40.45;99101.44;5135732;27;19970;-73
2021/05/04 13:01:34;;;;;;;;;;;;;;;20.57;39.62;99089.91;5136644;27;20021;-74
2021/05/04 13:04:15;;;;;;;;;;;;;;;20.52;41.38;99091.06;5133901;27;21481;-74
2021/05/04 13:06:51;;;;;;;;;;;;;;;20.28;41.54;99081.91;5136532;27;20379;-75